Time;durP1;ratioP1;P1;durP2;ratioP2;P2;SDS_P1;SDS_P2;PMS_P1;PMS_P2;Temp;Humidity;BMP_temperature;BMP_pressure;BME280_temperature;BME280_humidity;BME280_pressure;Samples;Min_cycle;Max_cycle;Signal;HPM_P1;HPM_P2
2022/10/10 00:00:54;;;;;;;7.60;5.40;;;6.60;1.00;;;;;;5021918;28;20223;-64
2022/10/10 00:03:21;;;;;;;11.63;5.80;;;6.50;1.00;;;;;;5057102;28;20576;-63
2022/10/10 00:05:48;;;;;;;9.40;5.47;;;6.50;1.00;;;;;;5022444;28;20235;-62
2022/10/10 00:08:15;;;;;;;10.80;6.20;;;6.50;1.00;;;;;;5022189;28;20206;-62
2022/10/10 00:10:42;;;;;;;8.17;6.80;;;6.50;1.00;;;;;;5023563;28;20232;-64
2022/10/10 00:13:09;;;;;;;6.67;5.80;;;6.50;1.00;;;;;;5039932;28;20270;-64
2022/10/10 00:15:36;;;;;;;8.97;5.83;;;6.50;1.00;;;;;;5029586;28;20650;-63
2022/10/10 00:18:03;;;;;;;11.73;6.17;;;6.40;1.00;;;;;;5040810;28;20275;-64
2022/10/10 00:20:30;;;;;;;7.70;6.50;;;6.40;21.80;;;;;;5054475;28;20208;-63
2022/10/10 00:22:57;;;;;;;9.43;6.13;;;6.40;99.90;;;;;;5039554;28;20204;-62
2022/10/10 00:25:24;;;;;;;6.63;6.03;;;6.40;99.90;;;;;;5023680;28;20195;-64
2022/10/10 00:27:51;;;;;;;7.47;5.80;;;6.40;99.90;;;;;;5019955;28;20239;-61
2022/10/10 00:30:19;;;;;;;8.80;6.33;;;6.30;36.40;;;;;;5018054;28;20690;-62
2022/10/10 00:32:46;;;;;;;7.87;5.80;;;6.30;1.00;;;;;;5018133;28;20200;-62
2022/10/10 00:35:13;;;;;;;14.90;6.60;;;6.30;1.00;;;;;;5017109;28;20308;-64
2022/10/10 00:37:40;;;;;;;7.37;6.10;;;6.20;1.00;;;;;;5019505;28;20773;-64
2022/10/10 00:40:08;;;;;;;9.17;5.80;;;6.20;9.00;;;;;;5019277;28;20235;-63
2022/10/10 00:42:35;;;;;;;10.73;6.07;;;6.20;25.30;;;;;;5015540;28;20206;-63
2022/10/10 00:45:29;;;;;;;8.80;5.67;;;6.10;11.30;;;;;;5020587;28;20188;-63
2022/10/10 00:48:12;;;;;;;9.13;5.60;;;6.10;1.00;;;;;;5018209;28;20208;-64
2022/10/10 00:50:50;;;;;;;10.53;6.00;;;6.10;1.00;;;;;;5016911;28;20299;-63
2022/10/10 00:53:24;;;;;;;6.70;6.10;;;6.00;1.00;;;;;;5034311;28;20209;-63
2022/10/10 00:55:55;;;;;;;7.83;5.63;;;6.10;1.00;;;;;;5000386;28;20219;-63
2022/10/10 00:58:23;;;;;;;10.77;6.33;;;6.00;1.00;;;;;;5018672;28;20200;-63
2022/10/10 01:00:51;;;;;;;9.97;5.63;;;6.00;1.00;;;;;;5022182;28;20220;-63
2022/10/10 01:03:18;;;;;;;7.70;5.30;;;6.00;1.00;;;;;;5030644;28;20196;-62
2022/10/10 01:05:49;;;;;;;7.63;5.73;;;5.90;1.00;;;;;;5007447;28;20796;-64
2022/10/10 01:08:18;;;;;;;8.63;5.30;;;5.90;1.00;;;;;;5018924;28;20188;-63
2022/10/10 01:11:14;;;;;;;13.20;5.53;;;5.90;1.00;;;;;;5016421;28;20314;-63
2022/10/10 01:14:15;;;;;;;9.33;5.03;;;5.90;1.00;;;;;;5018838;28;20224;-65
2022/10/10 01:17:01;;;;;;;7.70;5.70;;;5.90;1.00;;;;;;5024577;28;20740;-62
2022/10/10 01:20:14;;;;;;;9.20;5.53;;;5.80;1.00;;;;;;5016337;28;20689;-64
2022/10/10 01:23:00;;;;;;;8.87;5.73;;;5.80;1.00;;;;;;5014777;28;20196;-64
2022/10/10 01:25:47;;;;;;;9.30;6.30;;;5.80;99.90;;;;;;5015333;28;20242;-63
2022/10/10 01:28:26;;;;;;;7.33;5.40;;;5.80;99.90;;;;;;5039196;28;20320;-63
2022/10/10 01:30:56;;;;;;;7.60;5.57;;;5.70;1.00;;;;;;5016719;28;20203;-62
2022/10/10 01:33:34;;;;;;;6.20;5.53;;;5.70;1.00;;;;;;5050565;28;20284;-64
2022/10/10 01:36:14;;;;;;;7.30;5.67;;;5.70;1.00;;;;;;5017686;28;20287;-64
2022/10/10 01:38:51;;;;;;;6.83;5.53;;;5.70;1.00;;;;;;5018024;28;20199;-64
2022/10/10 01:41:29;;;;;;;8.93;5.60;;;5.70;1.00;;;;;;5016583;28;20956;-64
2022/10/10 01:43:57;;;;;;;6.23;5.30;;;5.60;1.00;;;;;;5015814;28;20287;-62
2022/10/10 01:46:25;;;;;;;7.60;5.20;;;5.60;1.00;;;;;;5017321;28;20200;-63
2022/10/10 01:48:56;;;;;;;7.83;5.63;;;5.70;1.00;;;;;;5047532;28;20192;-62
2022/10/10 01:51:45;;;;;;;7.13;6.00;;;5.70;30.20;;;;;;5014743;28;20243;-64
2022/10/10 01:54:26;;;;;;;9.67;6.90;;;5.80;42.50;;;;;;5015999;28;20654;-63
2022/10/10 01:57:23;;;;;;;10.07;7.63;;;5.80;1.00;;;;;;5018760;28;20272;-62
2022/10/10 02:00:07;;;;;;;12.97;9.20;;;5.80;1.00;;;;;;5014842;28;20254;-64
2022/10/10 02:02:37;;;;;;;10.47;9.07;;;5.80;60.50;;;;;;5017427;28;20239;-63
2022/10/10 02:05:27;;;;;;;13.77;10.53;;;5.80;1.00;;;;;;5022743;28;20223;-63
2022/10/10 02:08:03;;;;;;;17.77;12.07;;;5.70;99.90;;;;;;5022589;28;20298;-63
2022/10/10 02:10:33;;;;;;;16.10;10.97;;;5.70;99.90;;;;;;5018703;28;20196;-62
2022/10/10 02:13:03;;;;;;;11.57;8.40;;;5.70;99.90;;;;;;4997737;28;20221;-62
2022/10/10 02:15:39;;;;;;;11.83;9.53;;;5.80;99.90;;;;;;5046414;28;20295;-64
2022/10/10 02:18:07;;;;;;;17.87;12.20;;;5.80;99.90;;;;;;5032635;28;20667;-63
2022/10/10 02:20:35;;;;;;;19.83;12.43;;;5.80;99.90;;;;;;5018354;28;20211;-66
2022/10/10 02:23:04;;;;;;;19.73;12.43;;;5.80;99.90;;;;;;5018795;28;20200;-63
2022/10/10 02:25:38;;;;;;;19.60;13.87;;;5.70;99.90;;;;;;5017663;28;20204;-63
2022/10/10 02:28:15;;;;;;;16.37;13.27;;;5.70;99.90;;;;;;5035866;28;20227;-63
2022/10/10 02:30:46;;;;;;;17.40;11.67;;;5.70;99.90;;;;;;5034705;28;20612;-64
2022/10/10 02:33:16;;;;;;;19.17;12.00;;;5.70;99.90;;;;;;5021595;28;20708;-64
2022/10/10 02:35:48;;;;;;;7.33;6.60;;;5.80;99.90;;;;;;5036200;28;20287;-64
2022/10/10 02:38:16;;;;;;;6.30;5.57;;;5.70;99.90;;;;;;5021025;28;20189;-62
2022/10/10 02:40:46;;;;;;;11.07;5.60;;;5.50;1.00;;;;;;5016781;28;20224;-64
2022/10/10 02:43:14;;;;;;;7.37;5.40;;;5.40;1.00;;;;;;5016961;28;20698;-63
2022/10/10 02:45:41;;;;;;;5.50;4.90;;;5.40;1.00;;;;;;5018711;28;20200;-63
2022/10/10 02:48:08;;;;;;;8.80;4.80;;;5.30;1.00;;;;;;5020458;28;20284;-64
2022/10/10 02:50:35;;;;;;;6.40;4.73;;;5.30;1.00;;;;;;5018237;28;20546;-64
2022/10/10 02:53:03;;;;;;;11.37;5.03;;;5.30;1.00;;;;;;5022065;28;20192;-63
2022/10/10 02:55:30;;;;;;;6.97;5.73;;;5.40;1.00;;;;;;5021195;28;20244;-62
2022/10/10 02:57:56;;;;;;;7.50;5.47;;;5.30;1.00;;;;;;5021023;28;20699;-62
2022/10/10 03:00:23;;;;;;;17.93;11.27;;;5.30;99.90;;;;;;5017657;28;20200;-63
2022/10/10 03:02:50;;;;;;;20.03;13.97;;;5.20;99.90;;;;;;5030528;28;20292;-62
2022/10/10 03:05:18;;;;;;;18.20;13.33;;;5.30;1.00;;;;;;5033933;28;20656;-63
2022/10/10 03:07:45;;;;;;;22.33;14.97;;;5.40;1.00;;;;;;5019615;28;20554;-62
2022/10/10 03:10:12;;;;;;;15.57;10.13;;;5.40;1.00;;;;;;5017951;28;20295;-61
2022/10/10 03:12:39;;;;;;;15.13;10.13;;;5.40;1.00;;;;;;5021511;28;20228;-64
2022/10/10 03:15:07;;;;;;;12.83;9.17;;;5.40;1.00;;;;;;5017967;28;20604;-61
2022/10/10 03:17:38;;;;;;;17.93;10.17;;;5.30;99.90;;;;;;5020833;28;20207;-61
2022/10/10 03:20:06;;;;;;;14.43;9.03;;;5.30;99.90;;;;;;5018773;28;20199;-63
2022/10/10 03:22:33;;;;;;;14.40;8.63;;;5.20;1.00;;;;;;5035196;28;20235;-62
2022/10/10 03:25:00;;;;;;;11.50;9.00;;;5.20;1.00;;;;;;5021607;28;20227;-60
2022/10/10 03:27:27;;;;;;;12.03;9.30;;;5.20;1.00;;;;;;5019914;28;20236;-61
2022/10/10 03:29:57;;;;;;;10.40;7.20;;;5.20;1.00;;;;;;5025820;28;20305;-64
2022/10/10 03:32:23;;;;;;;10.10;6.27;;;5.20;1.00;;;;;;5018962;28;20201;-62
2022/10/10 03:34:50;;;;;;;5.60;5.03;;;5.20;1.00;;;;;;5018331;28;20204;-62
2022/10/10 03:37:17;;;;;;;6.67;4.77;;;5.20;1.00;;;;;;5018602;28;20193;-61
2022/10/10 03:39:44;;;;;;;9.67;5.33;;;5.10;1.00;;;;;;5000782;28;20193;-61
2022/10/10 03:42:11;;;;;;;7.83;5.37;;;5.00;1.00;;;;;;5001829;28;20204;-63
2022/10/10 03:44:39;;;;;;;8.50;5.60;;;5.00;1.00;;;;;;5017021;28;20239;-61
2022/10/10 03:47:06;;;;;;;7.90;5.63;;;4.90;99.90;;;;;;5018047;28;20200;-62
2022/10/10 03:49:33;;;;;;;10.23;5.70;;;4.90;99.90;;;;;;5032160;28;20251;-61
2022/10/10 03:52:00;;;;;;;5.73;4.80;;;4.90;99.90;;;;;;5002174;28;20932;-61
2022/10/10 03:54:27;;;;;;;7.20;6.00;;;4.90;36.30;;;;;;5021064;28;20227;-61
2022/10/10 03:56:54;;;;;;;5.67;5.07;;;4.80;1.00;;;;;;5017289;28;20207;-62
2022/10/10 03:59:23;;;;;;;6.67;5.20;;;4.80;1.00;;;;;;5016013;28;20295;-62
2022/10/10 04:01:50;;;;;;;9.30;5.50;;;4.80;1.00;;;;;;5015588;28;20200;-62
2022/10/10 04:04:17;;;;;;;5.80;5.07;;;4.80;99.90;;;;;;5018941;28;20224;-62
2022/10/10 04:06:45;;;;;;;6.27;5.10;;;4.80;53.60;;;;;;5032355;28;20223;-63
2022/10/10 04:09:12;;;;;;;8.83;5.40;;;4.70;43.60;;;;;;5007892;28;20235;-62
2022/10/10 04:11:39;;;;;;;5.97;5.20;;;4.70;99.90;;;;;;5026010;28;20224;-61
2022/10/10 04:14:06;;;;;;;8.37;5.33;;;4.70;99.90;;;;;;5001772;28;20722;-62
2022/10/10 04:16:33;;;;;;;6.80;5.30;;;4.70;99.90;;;;;;5019670;28;20499;-63
2022/10/10 04:19:00;;;;;;;8.87;5.40;;;4.60;1.00;;;;;;5035913;28;20200;-59
2022/10/10 04:21:28;;;;;;;9.17;5.93;;;4.70;1.00;;;;;;5020976;28;20298;-61
2022/10/10 04:23:55;;;;;;;9.27;5.03;;;4.70;1.00;;;;;;5019129;28;20282;-62
2022/10/10 04:26:22;;;;;;;5.67;4.57;;;4.70;1.00;;;;;;5018435;28;20608;-62
2022/10/10 04:28:49;;;;;;;7.57;5.17;;;4.70;1.00;;;;;;5019215;28;20655;-60
2022/10/10 04:31:16;;;;;;;9.97;4.83;;;4.70;1.00;;;;;;5016140;28;20213;-60
2022/10/10 04:33:43;;;;;;;11.63;4.83;;;4.60;1.00;;;;;;5018867;28;20290;-62
2022/10/10 04:36:10;;;;;;;6.10;4.90;;;4.60;1.00;;;;;;5017939;28;20630;-61
2022/10/10 04:38:37;;;;;;;6.53;4.70;;;4.60;1.00;;;;;;5017186;28;20206;-62
2022/10/10 04:41:04;;;;;;;5.73;5.07;;;4.70;1.00;;;;;;5017181;28;20192;-61
2022/10/10 04:43:31;;;;;;;7.37;5.20;;;4.70;1.00;;;;;;5018696;28;20181;-60
2022/10/10 04:45:58;;;;;;;6.17;4.63;;;4.70;1.00;;;;;;5016700;28;20215;-60
2022/10/10 04:48:25;;;;;;;5.97;5.03;;;4.70;1.00;;;;;;5017710;28;20208;-60
2022/10/10 04:50:53;;;;;;;6.13;5.40;;;4.60;1.00;;;;;;5017449;28;20223;-61
2022/10/10 04:53:21;;;;;;;10.20;7.43;;;4.60;1.00;;;;;;5033510;28;20310;-60
2022/10/10 04:55:48;;;;;;;8.93;7.17;;;4.60;99.90;;;;;;5002274;28;20200;-60
2022/10/10 04:58:15;;;;;;;5.50;4.90;;;4.60;99.90;;;;;;5015239;28;20201;-61
2022/10/10 05:00:42;;;;;;;6.17;4.87;;;4.70;99.90;;;;;;5017182;28;20197;-59
2022/10/10 05:03:11;;;;;;;8.27;4.77;;;4.70;99.90;;;;;;5016640;28;20192;-61
2022/10/10 05:05:39;;;;;;;6.60;4.80;;;4.70;99.90;;;;;;5015767;28;20203;-60
2022/10/10 05:08:09;;;;;;;4.87;4.37;;;4.60;97.80;;;;;;5024185;28;20228;-61
2022/10/10 05:10:39;;;;;;;5.60;4.30;;;4.60;88.20;;;;;;5023017;28;20212;-60
2022/10/10 05:13:09;;;;;;;5.67;4.67;;;4.60;99.90;;;;;;5017181;28;20229;-59
2022/10/10 05:15:36;;;;;;;6.90;4.60;;;4.70;99.90;;;;;;5030584;28;20198;-60
2022/10/10 05:18:04;;;;;;;6.97;5.30;;;4.70;99.90;;;;;;5016478;28;20200;-62
2022/10/10 05:20:32;;;;;;;6.90;4.27;;;4.80;99.90;;;;;;5014144;28;20744;-60
2022/10/10 05:22:59;;;;;;;5.33;4.63;;;4.70;99.90;;;;;;5010011;28;20222;-62
2022/10/10 05:25:26;;;;;;;8.03;4.67;;;4.80;99.90;;;;;;5018568;28;20201;-60
2022/10/10 05:27:53;;;;;;;9.43;5.53;;;4.80;99.90;;;;;;5016060;28;20242;-60
2022/10/10 05:30:20;;;;;;;6.20;4.97;;;4.80;99.90;;;;;;5014990;28;20201;-61
2022/10/10 05:32:48;;;;;;;14.83;6.47;;;4.80;99.90;;;;;;5016830;28;20714;-61
2022/10/10 05:35:16;;;;;;;8.60;5.77;;;4.80;99.90;;;;;;5016669;28;20546;-61
2022/10/10 05:37:43;;;;;;;6.50;5.83;;;4.80;99.90;;;;;;5029290;28;20230;-62
2022/10/10 05:40:10;;;;;;;10.17;5.73;;;4.80;99.90;;;;;;5004299;28;20200;-61
2022/10/10 05:42:37;;;;;;;8.33;6.43;;;4.90;99.90;;;;;;5005179;28;20767;-61
2022/10/10 05:45:04;;;;;;;7.83;5.70;;;4.90;1.00;;;;;;5031543;28;20299;-61
2022/10/10 05:47:34;;;;;;;8.77;5.40;;;4.90;1.00;;;;;;5016447;28;20726;-61
2022/10/10 05:50:01;;;;;;;7.97;5.50;;;4.90;1.00;;;;;;5014227;28;20250;-61
2022/10/10 05:52:28;;;;;;;6.00;5.40;;;4.90;99.90;;;;;;4998322;28;20222;-62
2022/10/10 05:54:55;;;;;;;6.83;4.90;;;5.00;99.90;;;;;;5018907;28;20216;-63
2022/10/10 05:57:22;;;;;;;6.63;5.10;;;5.10;1.00;;;;;;5034870;28;20948;-63
2022/10/10 05:59:49;;;;;;;6.90;5.00;;;5.20;1.00;;;;;;5018210;28;20258;-63
2022/10/10 06:02:16;;;;;;;6.70;4.97;;;5.90;1.00;;;;;;5011577;28;20639;-65
2022/10/10 06:04:43;;;;;;;5.90;4.70;;;6.80;99.90;;;;;;5017796;28;20203;-66
2022/10/10 06:07:10;;;;;;;7.90;4.10;;;7.50;99.90;;;;;;5020616;28;20200;-65
2022/10/10 06:09:37;;;;;;;5.73;3.27;;;8.30;80.40;;;;;;5019049;28;20201;-64
2022/10/10 06:12:07;;;;;;;5.07;3.43;;;8.90;1.00;;;;;;5022137;28;20564;-67
2022/10/10 06:14:34;;;;;;;7.97;3.60;;;9.40;1.00;;;;;;5022034;28;20242;-65
2022/10/10 06:17:01;;;;;;;3.40;3.00;;;9.70;1.00;;;;;;5019469;28;20556;-65
2022/10/10 06:19:28;;;;;;;6.73;3.30;;;10.10;1.00;;;;;;5033223;28;20556;-64
2022/10/10 06:21:55;;;;;;;4.90;3.30;;;10.80;1.00;;;;;;5021061;28;20192;-64
2022/10/10 06:24:22;;;;;;;7.20;3.23;;;11.50;1.00;;;;;;5021622;28;20530;-65
2022/10/10 06:26:48;;;;;;;3.37;2.70;;;12.50;1.00;;;;;;5021544;28;20224;-65
2022/10/10 06:29:16;;;;;;;5.73;3.30;;;13.80;1.00;;;;;;5023561;28;20694;-65
2022/10/10 06:31:43;;;;;;;6.22;2.78;;;14.70;1.00;;;;;;5030394;28;20227;-65
2022/10/10 06:34:10;;;;;;;4.65;3.25;;;15.10;1.00;;;;;;5004772;28;20206;-65
2022/10/10 06:36:37;;;;;;;4.07;3.35;;;15.60;1.00;;;;;;5029679;28;20199;-65
2022/10/10 06:39:04;;;;;;;5.32;3.50;;;16.50;1.00;;;;;;5025251;28;20578;-66
2022/10/10 06:41:31;;;;;;;5.07;3.30;;;17.50;1.00;;;;;;5053185;28;20196;-66
2022/10/10 06:43:58;;;;;;;6.00;3.25;;;18.20;1.00;;;;;;5038161;28;20291;-66
2022/10/10 06:46:25;;;;;;;9.30;4.38;;;18.90;1.00;;;;;;5022361;28;20235;-66
2022/10/10 06:48:52;;;;;;;5.72;3.92;;;19.00;1.00;;;;;;5039742;28;20204;-66
2022/10/10 06:51:19;;;;;;;8.77;4.32;;;19.40;1.00;;;;;;5052383;28;20188;-66
2022/10/10 06:53:46;;;;;;;6.30;5.00;;;19.40;1.00;;;;;;5022227;28;20690;-64
2022/10/10 06:56:20;;;;;;;8.93;5.93;;;17.80;1.00;;;;;;5022490;28;20262;-65
2022/10/10 06:58:53;;;;;;;9.15;4.38;;;15.90;1.00;;;;;;5023181;28;20229;-65
2022/10/10 07:01:21;;;;;;;6.43;3.38;;;14.60;1.00;;;;;;5040361;28;20902;-65
2022/10/10 07:03:49;;;;;;;6.80;4.32;;;13.60;1.00;;;;;;5024051;28;21154;-65
2022/10/10 07:06:17;;;;;;;6.80;4.53;;;13.00;1.00;;;;;;5022959;28;20331;-65
2022/10/10 07:08:44;;;;;;;5.93;5.28;;;12.70;1.00;;;;;;5022579;28;20302;-65
2022/10/10 07:11:11;;;;;;;7.50;5.82;;;12.20;1.00;;;;;;5007622;28;20227;-64
2022/10/10 07:13:39;;;;;;;7.18;5.50;;;11.70;1.00;;;;;;5023610;28;20497;-64
2022/10/10 07:16:06;;;;;;;9.63;5.55;;;11.70;1.00;;;;;;5021292;28;20220;-64
2022/10/10 07:18:35;;;;;;;13.35;6.15;;;11.60;1.00;;;;;;5042054;28;20282;-64
2022/10/10 07:21:03;;;;;;;10.10;6.90;;;11.50;1.00;;;;;;5038711;28;20282;-67
2022/10/10 07:23:31;;;;;;;9.93;5.82;;;11.60;1.00;;;;;;5040108;28;20197;-67
2022/10/10 07:26:01;;;;;;;8.50;6.00;;;11.60;1.00;;;;;;5008183;28;20272;-66
2022/10/10 07:28:28;;;;;;;8.32;4.30;;;11.70;1.00;;;;;;5031179;28;20228;-67
2022/10/10 07:31:00;;;;;;;11.60;7.05;;;11.80;1.00;;;;;;5025448;28;20200;-67
2022/10/10 07:33:37;;;;;;;5.83;4.70;;;11.90;1.00;;;;;;5031438;28;20832;-66
2022/10/10 07:36:04;;;;;;;8.53;4.67;;;12.00;1.00;;;;;;5038736;28;20199;-66
2022/10/10 07:38:32;;;;;;;9.73;4.17;;;12.00;1.00;;;;;;5023676;28;20261;-66
2022/10/10 07:41:10;;;;;;;8.20;4.20;;;12.10;1.00;;;;;;5046802;28;20203;-66
2022/10/10 07:43:38;;;;;;;7.80;4.30;;;12.20;1.00;;;;;;5024685;28;20195;-66
2022/10/10 07:46:11;;;;;;;7.13;4.13;;;12.30;1.00;;;;;;5042166;28;20196;-67
2022/10/10 07:48:39;;;;;;;7.10;4.50;;;12.40;1.00;;;;;;5008201;28;20294;-66
2022/10/10 07:51:06;;;;;;;6.17;3.93;;;12.20;1.00;;;;;;5039955;28;20192;-66
2022/10/10 07:53:33;;;;;;;8.60;4.30;;;12.20;1.00;;;;;;5039515;28;20587;-66
2022/10/10 07:56:04;;;;;;;8.47;4.03;;;12.30;1.00;;;;;;5019227;28;20246;-67
2022/10/10 07:58:32;;;;;;;6.67;4.17;;;12.40;1.00;;;;;;5020000;28;20235;-67
2022/10/10 08:01:08;;;;;;;5.30;4.57;;;12.60;1.00;;;;;;5029468;28;20192;-67
2022/10/10 08:03:35;;;;;;;7.00;5.13;;;12.80;1.00;;;;;;5038540;28;20187;-67
2022/10/10 08:06:05;;;;;;;7.43;4.63;;;13.10;1.00;;;;;;5021164;28;20196;-67
2022/10/10 08:08:33;;;;;;;7.87;4.23;;;13.40;1.00;;;;;;5042464;28;20196;-67
2022/10/10 08:11:07;;;;;;;7.00;4.10;;;13.80;1.00;;;;;;5056856;28;20249;-67
2022/10/10 08:13:35;;;;;;;9.50;5.23;;;14.10;1.00;;;;;;5023352;28;20239;-68
2022/10/10 08:16:04;;;;;;;17.07;4.80;;;14.30;1.00;;;;;;5039023;28;20201;-67
2022/10/10 08:18:33;;;;;;;7.07;4.38;;;14.50;1.00;;;;;;5022001;28;20192;-67
2022/10/10 08:21:04;;;;;;;10.80;4.83;;;14.60;1.00;;;;;;5025905;28;20211;-67
2022/10/10 08:23:31;;;;;;;5.03;3.55;;;15.00;1.00;;;;;;5038859;28;20210;-66
2022/10/10 08:26:00;;;;;;;7.25;3.53;;;15.10;1.00;;;;;;5019091;28;20511;-67
2022/10/10 08:28:28;;;;;;;4.68;3.05;;;15.20;1.00;;;;;;5039415;28;20250;-66
2022/10/10 08:30:55;;;;;;;5.90;2.95;;;15.50;1.00;;;;;;5013073;28;20695;-66
2022/10/10 08:33:25;;;;;;;6.63;3.22;;;15.80;1.00;;;;;;5020152;28;20302;-67
2022/10/10 08:35:53;;;;;;;8.05;3.22;;;15.80;1.00;;;;;;5035239;28;20713;-66
2022/10/10 08:38:20;;;;;;;5.25;3.10;;;15.80;1.00;;;;;;5035669;28;20192;-66
2022/10/10 08:40:50;;;;;;;5.50;3.08;;;15.90;1.00;;;;;;5035949;28;20202;-67
2022/10/10 08:43:39;;;;;;;5.93;2.80;;;16.10;1.00;;;;;;5037034;28;20195;-66
2022/10/10 08:46:29;;;;;;;7.70;2.70;;;16.60;1.00;;;;;;5001191;28;20199;-67
2022/10/10 08:49:00;;;;;;;7.63;2.83;;;19.70;1.00;;;;;;5018180;28;20230;-66
2022/10/10 08:51:31;;;;;;;4.70;2.70;;;20.20;1.00;;;;;;5038601;28;20195;-67
2022/10/10 08:54:03;;;;;;;10.63;2.97;;;20.90;1.00;;;;;;5023097;28;20220;-67
2022/10/10 08:56:31;;;;;;;7.22;2.95;;;20.60;1.00;;;;;;5011011;28;20196;-66
2022/10/10 08:59:16;;;;;;;7.15;2.85;;;21.00;1.00;;;;;;5021052;28;20215;-66
2022/10/10 09:01:43;;;;;;;4.80;2.70;;;21.30;1.00;;;;;;5036483;28;20219;-67
2022/10/10 09:04:32;;;;;;;8.32;2.55;;;23.10;1.00;;;;;;5023423;28;20210;-66
2022/10/10 09:07:23;;;;;;;7.43;2.60;;;24.50;1.00;;;;;;5053932;28;20202;-66
2022/10/10 09:10:20;;;;;;;7.18;2.85;;;26.40;1.00;;;;;;5050893;28;20196;-66
2022/10/10 09:13:11;;;;;;;4.00;2.40;;;27.50;1.00;;;;;;5035839;28;20266;-66
2022/10/10 09:15:40;;;;;;;5.95;3.10;;;25.90;1.00;;;;;;5023042;28;20275;-67
2022/10/10 09:18:34;;;;;;;5.80;2.75;;;25.70;1.00;;;;;;5028316;28;20192;-66
2022/10/10 09:21:15;;;;;;;7.10;2.60;;;25.20;1.00;;;;;;5038266;28;20196;-66
2022/10/10 09:23:46;;;;;;;6.10;2.70;;;26.80;1.00;;;;;;5038736;28;20203;-67
2022/10/10 09:26:17;;;;;;;6.57;2.53;;;28.30;1.00;;;;;;5021207;28;20207;-67
2022/10/10 09:28:50;;;;;;;7.47;2.45;;;30.00;1.00;;;;;;5053357;28;20327;-67
2022/10/10 09:31:21;;;;;;;6.00;2.40;;;28.80;1.00;;;;;;5039820;28;20188;-67
2022/10/10 09:33:56;;;;;;;7.78;2.33;;;28.30;1.00;;;;;;5043477;28;20214;-67
2022/10/10 09:36:29;;;;;;;5.22;2.60;;;28.10;1.00;;;;;;5042575;28;20198;-67
2022/10/10 09:39:00;;;;;;;11.35;2.50;;;27.80;1.00;;;;;;5039988;28;20274;-67
2022/10/10 09:41:38;;;;;;;6.47;2.63;;;27.70;1.00;;;;;;5037991;28;20199;-67
2022/10/10 09:44:11;;;;;;;7.57;2.50;;;26.90;1.00;;;;;;5023752;28;20308;-67
2022/10/10 09:46:40;;;;;;;6.63;2.08;;;29.10;1.00;;;;;;5057524;28;20195;-67
2022/10/10 09:49:09;;;;;;;6.82;2.47;;;31.60;1.00;;;;;;5042439;28;20326;-67
2022/10/10 09:51:36;;;;;;;4.70;2.40;;;28.90;1.00;;;;;;5044012;28;20283;-67
2022/10/10 09:54:05;;;;;;;6.97;3.03;;;28.20;1.00;;;;;;5043816;28;20246;-67
2022/10/10 09:56:40;;;;;;;7.55;2.63;;;28.90;1.00;;;;;;5040984;28;20228;-67
2022/10/10 09:59:36;;;;;;;5.90;2.20;;;33.80;1.00;;;;;;5026019;28;20209;-66
2022/10/10 10:02:25;;;;;;;11.25;2.78;;;31.50;1.00;;;;;;5030451;28;20566;-66
2022/10/10 10:04:53;;;;;;;5.75;2.55;;;31.70;1.00;;;;;;5022951;28;20201;-67
2022/10/10 10:07:30;;;;;;;5.82;2.25;;;31.60;1.00;;;;;;5024527;28;20256;-67
2022/10/10 10:10:09;;;;;;;7.07;2.28;;;33.40;1.00;;;;;;5043763;28;20216;-67
2022/10/10 10:12:39;;;;;;;4.93;2.20;;;32.10;1.00;;;;;;5024395;28;20224;-67
2022/10/10 10:15:20;;;;;;;5.93;2.22;;;35.30;1.00;;;;;;5023635;28;20207;-67
2022/10/10 10:18:15;;;;;;;7.65;2.40;;;34.50;1.00;;;;;;5040424;28;20216;-66
2022/10/10 10:20:44;;;;;;;4.07;2.42;;;31.20;1.00;;;;;;5043253;28;20235;-66
2022/10/10 10:23:25;;;;;;;5.38;2.22;;;30.60;1.00;;;;;;5021838;28;22760;-66
2022/10/10 10:26:01;;;;;;;6.93;2.47;;;29.90;1.00;;;;;;5022451;28;20234;-66
2022/10/10 10:28:29;;;;;;;7.13;2.40;;;31.00;1.00;;;;;;5021569;28;20337;-66
2022/10/10 10:30:57;;;;;;;4.35;2.05;;;30.50;1.00;;;;;;5018887;28;20769;-67
2022/10/10 10:33:36;;;;;;;4.78;2.60;;;30.80;1.00;;;;;;5016069;28;20220;-67
2022/10/10 10:36:26;;;;;;;12.95;2.85;;;32.80;1.00;;;;;;5030131;28;20223;-67
2022/10/10 10:39:20;;;;;;;5.25;2.30;;;31.60;1.00;;;;;;5019915;28;20220;-68
2022/10/10 10:42:01;;;;;;;5.72;2.38;;;30.00;1.00;;;;;;5021455;28;20193;-67
2022/10/10 10:44:47;;;;;;;11.70;2.22;;;30.60;1.00;;;;;;5006647;28;20807;-68
2022/10/10 10:47:29;;;;;;;7.35;2.08;;;29.30;1.00;;;;;;5020968;28;20208;-66
2022/10/10 10:50:26;;;;;;;6.18;2.40;;;29.80;1.00;;;;;;5020890;28;20283;-67
2022/10/10 10:52:58;;;;;;;7.97;2.30;;;29.20;1.00;;;;;;5016897;28;20216;-67
2022/10/10 10:55:31;;;;;;;7.47;2.22;;;29.00;1.00;;;;;;5020088;28;20192;-67
2022/10/10 10:58:21;;;;;;;10.68;2.20;;;28.30;1.00;;;;;;5017744;28;20229;-67
2022/10/10 11:01:35;;;;;;;8.75;2.20;;;27.70;1.00;;;;;;5021537;28;20252;-66
2022/10/10 11:04:43;;;;;;;5.57;2.30;;;27.20;1.00;;;;;;5021299;28;20217;-68
2022/10/10 11:07:44;;;;;;;5.55;2.03;;;27.50;1.00;;;;;;5020473;28;20203;-68
2022/10/10 11:10:33;;;;;;;5.30;2.00;;;27.20;1.00;;;;;;5027062;28;20228;-68
2022/10/10 11:13:38;;;;;;;8.45;2.40;;;25.20;1.00;;;;;;5023894;28;20626;-67
2022/10/10 11:16:15;;;;;;;8.43;2.53;;;23.20;1.00;;;;;;5021842;28;21037;-68
2022/10/10 11:19:24;;;;;;;7.38;1.90;;;23.20;1.00;;;;;;5019685;28;20225;-66
2022/10/10 11:22:00;;;;;;;5.88;2.53;;;23.90;1.00;;;;;;5016431;28;20598;-66
2022/10/10 11:24:52;;;;;;;5.07;2.10;;;25.40;1.00;;;;;;5021105;28;20192;-68
2022/10/10 11:27:34;;;;;;;3.95;2.00;;;27.00;1.00;;;;;;5036784;28;20229;-66
2022/10/10 11:30:22;;;;;;;4.93;2.40;;;27.50;1.00;;;;;;5039894;28;20191;-66
2022/10/10 11:33:22;;;;;;;6.80;2.40;;;26.20;1.00;;;;;;5038868;28;21498;-66
2022/10/10 11:35:57;;;;;;;7.25;2.38;;;25.60;1.00;;;;;;5053140;28;20230;-66
2022/10/10 11:38:44;;;;;;;9.02;2.53;;;26.40;1.00;;;;;;5041353;28;20287;-66
2022/10/10 11:41:20;;;;;;;8.93;1.95;;;25.80;1.00;;;;;;5015584;28;20195;-66
2022/10/10 11:43:52;;;;;;;4.97;2.22;;;24.50;1.00;;;;;;5024749;28;20598;-67
2022/10/10 11:46:57;;;;;;;5.90;2.40;;;24.70;1.00;;;;;;5026049;28;20219;-66
2022/10/10 11:49:49;;;;;;;7.38;2.40;;;23.60;1.00;;;;;;5032249;28;20290;-66
2022/10/10 11:52:28;;;;;;;6.95;2.30;;;23.00;1.00;;;;;;5040474;28;20202;-67
2022/10/10 11:55:08;;;;;;;8.90;2.58;;;22.90;1.00;;;;;;5042904;28;20582;-67
2022/10/10 11:57:41;;;;;;;7.80;2.60;;;23.00;1.00;;;;;;5023850;28;21092;-68
2022/10/10 12:00:16;;;;;;;5.60;2.95;;;23.20;1.00;;;;;;5044819;28;20187;-68
2022/10/10 12:02:45;;;;;;;10.63;2.75;;;23.40;1.00;;;;;;5030086;28;20195;-66
2022/10/10 12:05:28;;;;;;;8.85;2.47;;;23.60;1.00;;;;;;5006509;28;20203;-66
2022/10/10 12:08:13;;;;;;;6.53;2.10;;;23.00;1.00;;;;;;5040334;28;20235;-67
2022/10/10 12:10:48;;;;;;;5.20;1.98;;;22.90;1.00;;;;;;5041346;28;20914;-67
2022/10/10 12:13:44;;;;;;;9.38;2.33;;;22.40;1.00;;;;;;5023643;28;20211;-66
2022/10/10 12:16:22;;;;;;;4.45;2.30;;;22.50;1.00;;;;;;5052061;28;20253;-67
2022/10/10 12:19:02;;;;;;;10.02;2.45;;;21.80;1.00;;;;;;5040399;28;20188;-67
2022/10/10 12:21:31;;;;;;;5.90;2.30;;;22.10;1.00;;;;;;5034390;28;20184;-66
2022/10/10 12:24:13;;;;;;;8.93;2.20;;;21.70;1.00;;;;;;5022844;28;20667;-65
2022/10/10 12:26:52;;;;;;;8.27;2.60;;;21.80;1.00;;;;;;5039954;28;20440;-66
2022/10/10 12:29:48;;;;;;;12.18;2.95;;;21.70;1.00;;;;;;5000559;28;20224;-66
2022/10/10 12:32:17;;;;;;;7.45;2.25;;;21.90;1.00;;;;;;5005679;28;20303;-66
2022/10/10 12:34:47;;;;;;;6.80;3.20;;;22.00;1.00;;;;;;4999401;28;20283;-66
2022/10/10 12:37:27;;;;;;;11.30;2.90;;;22.10;1.00;;;;;;4995210;28;20207;-66
2022/10/10 12:40:00;;;;;;;10.35;2.65;;;22.50;1.00;;;;;;4999413;28;20256;-66
2022/10/10 12:42:31;;;;;;;7.05;2.88;;;22.80;1.00;;;;;;5000186;28;20652;-66
2022/10/10 12:44:58;;;;;;;10.48;2.75;;;22.40;1.00;;;;;;4997850;28;20205;-66
2022/10/10 12:47:29;;;;;;;7.93;2.40;;;22.30;1.00;;;;;;5014623;28;20205;-66
2022/10/10 12:50:37;;;;;;;4.18;2.17;;;22.30;1.00;;;;;;4999253;28;20243;-66
2022/10/10 12:53:13;;;;;;;10.10;2.83;;;22.60;1.00;;;;;;4999998;28;20193;-67
2022/10/10 12:55:40;;;;;;;5.88;3.22;;;22.30;1.00;;;;;;4998684;28;20198;-67
2022/10/10 12:58:14;;;;;;;7.75;2.55;;;21.90;1.00;;;;;;5012717;28;20668;-67
2022/10/10 13:01:02;;;;;;;9.57;3.00;;;21.90;1.00;;;;;;5001516;28;20205;-67
2022/10/10 13:03:43;;;;;;;6.13;2.88;;;21.30;1.00;;;;;;4999489;28;20566;-65
2022/10/10 13:06:20;;;;;;;8.02;2.85;;;21.20;1.00;;;;;;4998495;28;20197;-65
2022/10/10 13:08:48;;;;;;;10.55;2.45;;;21.40;1.00;;;;;;5000310;28;20433;-65
2022/10/10 13:11:15;;;;;;;6.85;2.40;;;21.70;1.00;;;;;;4997779;28;20267;-66
2022/10/10 13:13:53;;;;;;;6.43;2.60;;;21.90;1.00;;;;;;4999822;28;20213;-66
2022/10/10 13:16:26;;;;;;;8.02;2.78;;;21.80;1.00;;;;;;5015157;28;20199;-65
2022/10/10 13:18:59;;;;;;;6.47;2.40;;;21.80;1.00;;;;;;4997626;28;20209;-65
2022/10/10 13:21:32;;;;;;;7.07;2.42;;;21.50;1.00;;;;;;5001710;28;20275;-64
2022/10/10 13:24:02;;;;;;;8.40;3.17;;;21.20;1.00;;;;;;5000817;28;20205;-65
2022/10/10 13:26:56;;;;;;;5.55;2.63;;;21.10;1.00;;;;;;4998905;28;20656;-64
2022/10/10 13:29:42;;;;;;;6.53;2.67;;;20.90;1.00;;;;;;5015762;28;20213;-65